sensor_id;sensor_type;location;lat;lon;timestamp;temperature;humidity
22145;DHT22;11238;48.730;11.566;2023-03-14T00:01:23;10.80;99.90
22145;DHT22;11238;48.730;11.566;2023-03-14T00:03:50;10.80;99.90
22145;DHT22;11238;48.730;11.566;2023-03-14T00:06:16;10.90;99.90
22145;DHT22;11238;48.730;11.566;2023-03-14T00:08:45;10.90;99.90
22145;DHT22;11238;48.730;11.566;2023-03-14T00:11:18;10.80;99.90
22145;DHT22;11238;48.730;11.566;2023-03-14T00:13:49;10.70;99.90
22145;DHT22;11238;48.730;11.566;2023-03-14T00:16:16;10.70;99.90
22145;DHT22;11238;48.730;11.566;2023-03-14T00:18:42;10.70;99.90
22145;DHT22;11238;48.730;11.566;2023-03-14T00:21:09;10.80;99.90
22145;DHT22;11238;48.730;11.566;2023-03-14T00:23:37;10.70;99.90
22145;DHT22;11238;48.730;11.566;2023-03-14T00:26:09;10.80;99.90
22145;DHT22;11238;48.730;11.566;2023-03-14T00:28:35;10.80;99.90
22145;DHT22;11238;48.730;11.566;2023-03-14T00:31:09;10.80;99.90
22145;DHT22;11238;48.730;11.566;2023-03-14T00:33:36;10.70;99.90
22145;DHT22;11238;48.730;11.566;2023-03-14T00:36:14;10.70;99.90
22145;DHT22;11238;48.730;11.566;2023-03-14T00:38:41;10.70;99.90
22145;DHT22;11238;48.730;11.566;2023-03-14T00:41:10;10.70;99.90
22145;DHT22;11238;48.730;11.566;2023-03-14T00:43:37;10.70;99.90
22145;DHT22;11238;48.730;11.566;2023-03-14T00:46:03;10.70;99.90
22145;DHT22;11238;48.730;11.566;2023-03-14T00:48:29;10.70;99.90
22145;DHT22;11238;48.730;11.566;2023-03-14T00:50:55;10.60;99.90
22145;DHT22;11238;48.730;11.566;2023-03-14T00:53:22;10.40;99.90
22145;DHT22;11238;48.730;11.566;2023-03-14T00:55:48;10.30;99.90
22145;DHT22;11238;48.730;11.566;2023-03-14T00:58:16;10.10;99.90
22145;DHT22;11238;48.730;11.566;2023-03-14T01:00:42;10.00;99.90
22145;DHT22;11238;48.730;11.566;2023-03-14T01:03:09;10.00;99.90
22145;DHT22;11238;48.730;11.566;2023-03-14T01:05:36;10.10;99.90
22145;DHT22;11238;48.730;11.566;2023-03-14T01:08:03;10.10;99.90
22145;DHT22;11238;48.730;11.566;2023-03-14T01:10:29;10.00;99.90
22145;DHT22;11238;48.730;11.566;2023-03-14T01:12:55;10.00;99.90
22145;DHT22;11238;48.730;11.566;2023-03-14T01:15:21;10.00;99.90
22145;DHT22;11238;48.730;11.566;2023-03-14T01:17:47;10.00;99.90
22145;DHT22;11238;48.730;11.566;2023-03-14T01:20:15;10.00;99.90
22145;DHT22;11238;48.730;11.566;2023-03-14T01:22:42;10.00;99.90
22145;DHT22;11238;48.730;11.566;2023-03-14T01:25:14;10.00;99.90
22145;DHT22;11238;48.730;11.566;2023-03-14T01:27:41;9.90;99.90
22145;DHT22;11238;48.730;11.566;2023-03-14T01:30:08;9.80;99.90
22145;DHT22;11238;48.730;11.566;2023-03-14T01:32:35;9.80;99.90
22145;DHT22;11238;48.730;11.566;2023-03-14T01:35:01;9.70;99.90
22145;DHT22;11238;48.730;11.566;2023-03-14T01:37:27;9.60;99.90
22145;DHT22;11238;48.730;11.566;2023-03-14T01:39:53;9.60;99.90
22145;DHT22;11238;48.730;11.566;2023-03-14T01:42:19;9.50;99.90
22145;DHT22;11238;48.730;11.566;2023-03-14T01:44:59;9.40;99.90
22145;DHT22;11238;48.730;11.566;2023-03-14T01:47:26;9.40;99.90
22145;DHT22;11238;48.730;11.566;2023-03-14T01:50:03;9.40;99.90
22145;DHT22;11238;48.730;11.566;2023-03-14T01:52:50;9.40;99.90
22145;DHT22;11238;48.730;11.566;2023-03-14T01:55:24;9.40;99.90
22145;DHT22;11238;48.730;11.566;2023-03-14T01:57:55;9.40;99.90
22145;DHT22;11238;48.730;11.566;2023-03-14T02:00:23;9.40;99.90
22145;DHT22;11238;48.730;11.566;2023-03-14T02:02:52;9.30;99.90
22145;DHT22;11238;48.730;11.566;2023-03-14T02:05:26;9.30;99.90
22145;DHT22;11238;48.730;11.566;2023-03-14T02:08:00;9.40;99.90
22145;DHT22;11238;48.730;11.566;2023-03-14T02:10:44;9.30;99.90
22145;DHT22;11238;48.730;11.566;2023-03-14T02:13:11;9.20;99.90
22145;DHT22;11238;48.730;11.566;2023-03-14T02:15:53;9.20;99.90
22145;DHT22;11238;48.730;11.566;2023-03-14T02:18:54;9.20;99.90
22145;DHT22;11238;48.730;11.566;2023-03-14T02:21:38;9.10;99.90
22145;DHT22;11238;48.730;11.566;2023-03-14T02:24:27;9.00;99.90
22145;DHT22;11238;48.730;11.566;2023-03-14T02:27:07;9.00;99.90
22145;DHT22;11238;48.730;11.566;2023-03-14T02:29:37;9.10;99.90
22145;DHT22;11238;48.730;11.566;2023-03-14T02:32:05;9.10;99.90
22145;DHT22;11238;48.730;11.566;2023-03-14T02:34:31;9.20;99.90
22145;DHT22;11238;48.730;11.566;2023-03-14T02:37:00;9.10;99.90
22145;DHT22;11238;48.730;11.566;2023-03-14T02:39:37;9.10;99.90
22145;DHT22;11238;48.730;11.566;2023-03-14T02:42:04;9.10;99.90
22145;DHT22;11238;48.730;11.566;2023-03-14T02:44:30;9.10;99.90
22145;DHT22;11238;48.730;11.566;2023-03-14T02:46:56;9.20;99.90
22145;DHT22;11238;48.730;11.566;2023-03-14T02:49:22;9.20;99.90
22145;DHT22;11238;48.730;11.566;2023-03-14T02:51:48;9.10;99.90
22145;DHT22;11238;48.730;11.566;2023-03-14T02:54:15;9.10;99.90
22145;DHT22;11238;48.730;11.566;2023-03-14T02:56:41;9.10;99.90
22145;DHT22;11238;48.730;11.566;2023-03-14T02:59:11;9.10;99.90
22145;DHT22;11238;48.730;11.566;2023-03-14T03:01:48;9.10;99.90
22145;DHT22;11238;48.730;11.566;2023-03-14T03:04:14;9.20;99.90
22145;DHT22;11238;48.730;11.566;2023-03-14T03:06:40;9.10;99.90
22145;DHT22;11238;48.730;11.566;2023-03-14T03:09:06;9.00;99.90
22145;DHT22;11238;48.730;11.566;2023-03-14T03:11:32;9.00;99.90
22145;DHT22;11238;48.730;11.566;2023-03-14T03:13:58;9.00;99.90
22145;DHT22;11238;48.730;11.566;2023-03-14T03:16:29;9.00;99.90
22145;DHT22;11238;48.730;11.566;2023-03-14T03:18:56;9.10;99.90
22145;DHT22;11238;48.730;11.566;2023-03-14T03:21:21;9.20;99.90
22145;DHT22;11238;48.730;11.566;2023-03-14T03:23:49;9.20;99.90
22145;DHT22;11238;48.730;11.566;2023-03-14T03:26:15;9.20;99.90
22145;DHT22;11238;48.730;11.566;2023-03-14T03:28:42;9.30;99.90
22145;DHT22;11238;48.730;11.566;2023-03-14T03:31:09;9.30;99.90
22145;DHT22;11238;48.730;11.566;2023-03-14T03:33:37;9.30;99.90
22145;DHT22;11238;48.730;11.566;2023-03-14T03:36:03;9.30;99.90
22145;DHT22;11238;48.730;11.566;2023-03-14T03:38:51;9.20;99.90
22145;DHT22;11238;48.730;11.566;2023-03-14T03:41:17;9.20;99.90
22145;DHT22;11238;48.730;11.566;2023-03-14T03:43:43;9.20;99.90
22145;DHT22;11238;48.730;11.566;2023-03-14T03:46:11;9.20;99.90
22145;DHT22;11238;48.730;11.566;2023-03-14T03:48:38;9.20;99.90
22145;DHT22;11238;48.730;11.566;2023-03-14T03:51:05;9.10;99.90
22145;DHT22;11238;48.730;11.566;2023-03-14T03:53:32;9.10;99.90
22145;DHT22;11238;48.730;11.566;2023-03-14T03:55:58;9.20;99.90
22145;DHT22;11238;48.730;11.566;2023-03-14T03:58:24;9.20;99.90
22145;DHT22;11238;48.730;11.566;2023-03-14T04:00:49;9.20;99.90
22145;DHT22;11238;48.730;11.566;2023-03-14T04:03:15;9.10;99.90
22145;DHT22;11238;48.730;11.566;2023-03-14T04:05:41;9.20;99.90
22145;DHT22;11238;48.730;11.566;2023-03-14T04:08:08;9.10;99.90
22145;DHT22;11238;48.730;11.566;2023-03-14T04:10:35;9.20;99.90
22145;DHT22;11238;48.730;11.566;2023-03-14T04:13:07;9.20;99.90
22145;DHT22;11238;48.730;11.566;2023-03-14T04:15:34;9.10;99.90
22145;DHT22;11238;48.730;11.566;2023-03-14T04:18:06;9.10;99.90
22145;DHT22;11238;48.730;11.566;2023-03-14T04:20:34;9.20;99.90
22145;DHT22;11238;48.730;11.566;2023-03-14T04:23:01;9.20;99.90
22145;DHT22;11238;48.730;11.566;2023-03-14T04:25:27;9.20;99.90
22145;DHT22;11238;48.730;11.566;2023-03-14T04:27:56;9.20;99.90
22145;DHT22;11238;48.730;11.566;2023-03-14T04:30:25;9.20;99.90
22145;DHT22;11238;48.730;11.566;2023-03-14T04:32:55;9.20;99.90
22145;DHT22;11238;48.730;11.566;2023-03-14T04:35:24;9.10;99.90
22145;DHT22;11238;48.730;11.566;2023-03-14T04:37:53;9.10;99.90
22145;DHT22;11238;48.730;11.566;2023-03-14T04:40:21;9.10;99.90
22145;DHT22;11238;48.730;11.566;2023-03-14T04:42:49;9.10;99.90
22145;DHT22;11238;48.730;11.566;2023-03-14T04:45:15;9.10;99.90
22145;DHT22;11238;48.730;11.566;2023-03-14T04:47:42;9.10;99.90
22145;DHT22;11238;48.730;11.566;2023-03-14T04:50:11;9.10;99.90
22145;DHT22;11238;48.730;11.566;2023-03-14T04:52:37;9.20;99.90
22145;DHT22;11238;48.730;11.566;2023-03-14T04:55:06;9.20;99.90
22145;DHT22;11238;48.730;11.566;2023-03-14T04:57:33;9.10;99.90
22145;DHT22;11238;48.730;11.566;2023-03-14T04:59:59;9.10;99.90
22145;DHT22;11238;48.730;11.566;2023-03-14T05:02:41;9.20;99.90
22145;DHT22;11238;48.730;11.566;2023-03-14T05:05:16;9.10;99.90
22145;DHT22;11238;48.730;11.566;2023-03-14T05:07:52;9.10;99.90
22145;DHT22;11238;48.730;11.566;2023-03-14T05:10:38;9.10;99.90
22145;DHT22;11238;48.730;11.566;2023-03-14T05:13:16;9.10;99.90
22145;DHT22;11238;48.730;11.566;2023-03-14T05:15:50;9.00;99.90
22145;DHT22;11238;48.730;11.566;2023-03-14T05:18:46;9.10;99.90
22145;DHT22;11238;48.730;11.566;2023-03-14T05:21:31;9.10;99.90
22145;DHT22;11238;48.730;11.566;2023-03-14T05:24:23;9.00;99.90
22145;DHT22;11238;48.730;11.566;2023-03-14T05:27:06;9.10;99.90
22145;DHT22;11238;48.730;11.566;2023-03-14T05:30:03;9.00;99.90
22145;DHT22;11238;48.730;11.566;2023-03-14T05:32:57;9.00;99.90
22145;DHT22;11238;48.730;11.566;2023-03-14T05:35:58;9.00;99.90
22145;DHT22;11238;48.730;11.566;2023-03-14T05:38:43;9.00;99.90
22145;DHT22;11238;48.730;11.566;2023-03-14T05:41:35;9.00;99.90
22145;DHT22;11238;48.730;11.566;2023-03-14T05:44:20;9.00;99.90
22145;DHT22;11238;48.730;11.566;2023-03-14T05:47:07;9.00;99.90
22145;DHT22;11238;48.730;11.566;2023-03-14T05:49:52;9.00;99.90
22145;DHT22;11238;48.730;11.566;2023-03-14T05:52:53;8.90;99.90
22145;DHT22;11238;48.730;11.566;2023-03-14T05:55:39;9.00;99.90
22145;DHT22;11238;48.730;11.566;2023-03-14T05:58:24;9.00;99.90
22145;DHT22;11238;48.730;11.566;2023-03-14T06:01:06;8.90;99.90
22145;DHT22;11238;48.730;11.566;2023-03-14T06:04:00;9.00;99.90
22145;DHT22;11238;48.730;11.566;2023-03-14T06:06:25;9.00;99.90
22145;DHT22;11238;48.730;11.566;2023-03-14T06:08:51;9.00;99.90
22145;DHT22;11238;48.730;11.566;2023-03-14T06:11:17;9.00;99.90
22145;DHT22;11238;48.730;11.566;2023-03-14T06:13:43;9.00;99.90
22145;DHT22;11238;48.730;11.566;2023-03-14T06:16:09;9.00;99.90
22145;DHT22;11238;48.730;11.566;2023-03-14T06:18:35;9.00;99.90
22145;DHT22;11238;48.730;11.566;2023-03-14T06:21:01;9.00;99.90
22145;DHT22;11238;48.730;11.566;2023-03-14T06:23:27;9.00;99.90
22145;DHT22;11238;48.730;11.566;2023-03-14T06:25:58;9.10;99.90
22145;DHT22;11238;48.730;11.566;2023-03-14T06:28:25;9.00;99.90
22145;DHT22;11238;48.730;11.566;2023-03-14T06:30:50;9.00;99.90
22145;DHT22;11238;48.730;11.566;2023-03-14T06:33:16;9.00;99.90
22145;DHT22;11238;48.730;11.566;2023-03-14T06:35:42;9.00;99.90
22145;DHT22;11238;48.730;11.566;2023-03-14T06:38:08;9.00;99.90
22145;DHT22;11238;48.730;11.566;2023-03-14T06:40:34;9.00;99.90
22145;DHT22;11238;48.730;11.566;2023-03-14T06:43:26;9.00;99.90
22145;DHT22;11238;48.730;11.566;2023-03-14T06:45:53;9.10;99.90
22145;DHT22;11238;48.730;11.566;2023-03-14T06:48:18;9.20;99.90
22145;DHT22;11238;48.730;11.566;2023-03-14T06:50:49;9.20;99.90
22145;DHT22;11238;48.730;11.566;2023-03-14T06:53:15;9.20;99.90
22145;DHT22;11238;48.730;11.566;2023-03-14T06:55:42;9.20;99.90
22145;DHT22;11238;48.730;11.566;2023-03-14T06:58:09;9.20;99.90
22145;DHT22;11238;48.730;11.566;2023-03-14T07:00:41;9.20;99.90
22145;DHT22;11238;48.730;11.566;2023-03-14T07:03:09;9.20;99.90
22145;DHT22;11238;48.730;11.566;2023-03-14T07:05:39;9.20;99.90
22145;DHT22;11238;48.730;11.566;2023-03-14T07:08:09;9.30;99.90
22145;DHT22;11238;48.730;11.566;2023-03-14T07:10:37;9.30;99.90
22145;DHT22;11238;48.730;11.566;2023-03-14T07:13:02;9.30;99.90
22145;DHT22;11238;48.730;11.566;2023-03-14T07:15:32;9.30;99.90
22145;DHT22;11238;48.730;11.566;2023-03-14T07:18:03;9.30;99.90
22145;DHT22;11238;48.730;11.566;2023-03-14T07:20:30;9.30;99.90
22145;DHT22;11238;48.730;11.566;2023-03-14T07:22:57;9.40;99.90
22145;DHT22;11238;48.730;11.566;2023-03-14T07:25:39;9.30;99.90
22145;DHT22;11238;48.730;11.566;2023-03-14T07:28:05;9.40;99.90
22145;DHT22;11238;48.730;11.566;2023-03-14T07:30:32;9.30;99.90
22145;DHT22;11238;48.730;11.566;2023-03-14T07:32:59;9.30;99.90
22145;DHT22;11238;48.730;11.566;2023-03-14T07:35:25;9.40;99.90
22145;DHT22;11238;48.730;11.566;2023-03-14T07:37:51;9.30;99.90
22145;DHT22;11238;48.730;11.566;2023-03-14T07:40:26;9.30;99.90
22145;DHT22;11238;48.730;11.566;2023-03-14T07:42:52;9.30;99.90
22145;DHT22;11238;48.730;11.566;2023-03-14T07:45:27;9.40;99.90
22145;DHT22;11238;48.730;11.566;2023-03-14T07:47:55;9.40;99.90
22145;DHT22;11238;48.730;11.566;2023-03-14T07:50:26;9.40;99.90
22145;DHT22;11238;48.730;11.566;2023-03-14T07:52:53;9.40;99.90
22145;DHT22;11238;48.730;11.566;2023-03-14T07:55:19;9.50;99.90
22145;DHT22;11238;48.730;11.566;2023-03-14T07:57:45;9.50;99.90
22145;DHT22;11238;48.730;11.566;2023-03-14T08:00:12;9.50;99.90
22145;DHT22;11238;48.730;11.566;2023-03-14T08:02:42;9.50;99.90
22145;DHT22;11238;48.730;11.566;2023-03-14T08:05:08;9.60;99.90
22145;DHT22;11238;48.730;11.566;2023-03-14T08:07:34;9.60;99.90
22145;DHT22;11238;48.730;11.566;2023-03-14T08:10:00;9.60;99.90
22145;DHT22;11238;48.730;11.566;2023-03-14T08:12:26;9.60;99.90
22145;DHT22;11238;48.730;11.566;2023-03-14T08:14:52;9.70;99.90
22145;DHT22;11238;48.730;11.566;2023-03-14T08:17:18;9.70;99.90
22145;DHT22;11238;48.730;11.566;2023-03-14T08:19:44;9.70;99.90
22145;DHT22;11238;48.730;11.566;2023-03-14T08:22:10;9.80;99.90
22145;DHT22;11238;48.730;11.566;2023-03-14T08:24:36;9.90;99.90
22145;DHT22;11238;48.730;11.566;2023-03-14T08:27:02;9.90;99.90
22145;DHT22;11238;48.730;11.566;2023-03-14T08:29:28;10.00;99.90
22145;DHT22;11238;48.730;11.566;2023-03-14T08:31:55;10.00;99.90
22145;DHT22;11238;48.730;11.566;2023-03-14T08:34:21;10.00;99.90
22145;DHT22;11238;48.730;11.566;2023-03-14T08:36:46;10.10;99.90
22145;DHT22;11238;48.730;11.566;2023-03-14T08:39:12;10.10;99.90
22145;DHT22;11238;48.730;11.566;2023-03-14T08:41:38;10.20;99.90
22145;DHT22;11238;48.730;11.566;2023-03-14T08:44:07;10.20;99.90
22145;DHT22;11238;48.730;11.566;2023-03-14T08:46:33;10.20;99.90
22145;DHT22;11238;48.730;11.566;2023-03-14T08:48:59;10.20;99.90
22145;DHT22;11238;48.730;11.566;2023-03-14T08:51:25;10.20;99.90
22145;DHT22;11238;48.730;11.566;2023-03-14T08:53:50;10.30;99.90
22145;DHT22;11238;48.730;11.566;2023-03-14T08:56:16;10.40;99.90
22145;DHT22;11238;48.730;11.566;2023-03-14T08:58:42;10.30;99.90
22145;DHT22;11238;48.730;11.566;2023-03-14T09:01:10;10.40;99.90
22145;DHT22;11238;48.730;11.566;2023-03-14T09:03:36;10.40;99.90
22145;DHT22;11238;48.730;11.566;2023-03-14T09:06:07;10.50;99.90
22145;DHT22;11238;48.730;11.566;2023-03-14T09:08:35;10.50;99.90
22145;DHT22;11238;48.730;11.566;2023-03-14T09:11:01;10.60;99.90
22145;DHT22;11238;48.730;11.566;2023-03-14T09:13:27;10.60;99.90
22145;DHT22;11238;48.730;11.566;2023-03-14T09:15:54;10.60;99.90
22145;DHT22;11238;48.730;11.566;2023-03-14T09:18:20;10.60;99.90
22145;DHT22;11238;48.730;11.566;2023-03-14T09:20:46;10.70;99.90
22145;DHT22;11238;48.730;11.566;2023-03-14T09:23:12;10.80;99.90
22145;DHT22;11238;48.730;11.566;2023-03-14T09:25:38;10.90;99.90
22145;DHT22;11238;48.730;11.566;2023-03-14T09:28:04;10.90;99.90
22145;DHT22;11238;48.730;11.566;2023-03-14T09:30:30;11.00;99.90
22145;DHT22;11238;48.730;11.566;2023-03-14T09:32:55;11.10;99.90
22145;DHT22;11238;48.730;11.566;2023-03-14T09:35:23;11.20;99.90
22145;DHT22;11238;48.730;11.566;2023-03-14T09:37:48;11.30;99.90
22145;DHT22;11238;48.730;11.566;2023-03-14T09:40:18;11.40;99.90
22145;DHT22;11238;48.730;11.566;2023-03-14T09:42:48;11.70;99.90
22145;DHT22;11238;48.730;11.566;2023-03-14T09:45:28;11.90;99.90
22145;DHT22;11238;48.730;11.566;2023-03-14T09:47:55;12.00;99.90
22145;DHT22;11238;48.730;11.566;2023-03-14T09:50:23;12.10;99.90
22145;DHT22;11238;48.730;11.566;2023-03-14T09:52:52;12.10;99.90
22145;DHT22;11238;48.730;11.566;2023-03-14T09:55:22;12.00;99.90
22145;DHT22;11238;48.730;11.566;2023-03-14T09:57:56;12.10;99.90
22145;DHT22;11238;48.730;11.566;2023-03-14T10:00:26;12.10;99.90
22145;DHT22;11238;48.730;11.566;2023-03-14T10:03:39;12.20;99.90
22145;DHT22;11238;48.730;11.566;2023-03-14T10:05:41;12.20;99.90
22145;DHT22;11238;48.730;11.566;2023-03-14T10:08:11;12.20;99.90
22145;DHT22;11238;48.730;11.566;2023-03-14T10:10:38;12.40;99.90
22145;DHT22;11238;48.730;11.566;2023-03-14T10:15:39;12.20;99.90
22145;DHT22;11238;48.730;11.566;2023-03-14T10:18:11;12.10;99.90
22145;DHT22;11238;48.730;11.566;2023-03-14T10:20:45;12.00;99.90
22145;DHT22;11238;48.730;11.566;2023-03-14T10:25:40;12.30;99.90
22145;DHT22;11238;48.730;11.566;2023-03-14T10:28:28;12.40;99.90
22145;DHT22;11238;48.730;11.566;2023-03-14T10:30:55;12.50;99.90
22145;DHT22;11238;48.730;11.566;2023-03-14T10:33:27;12.40;99.90
22145;DHT22;11238;48.730;11.566;2023-03-14T10:36:02;12.40;99.90
22145;DHT22;11238;48.730;11.566;2023-03-14T10:38:33;12.40;99.90
22145;DHT22;11238;48.730;11.566;2023-03-14T10:41:00;12.30;99.90
22145;DHT22;11238;48.730;11.566;2023-03-14T10:43:31;12.20;99.90
22145;DHT22;11238;48.730;11.566;2023-03-14T10:46:02;12.20;99.90
22145;DHT22;11238;48.730;11.566;2023-03-14T10:48:36;12.50;99.90
22145;DHT22;11238;48.730;11.566;2023-03-14T10:51:24;12.70;99.90
22145;DHT22;11238;48.730;11.566;2023-03-14T10:54:03;12.70;99.90
22145;DHT22;11238;48.730;11.566;2023-03-14T10:56:35;12.90;99.30
22145;DHT22;11238;48.730;11.566;2023-03-14T10:59:03;13.00;99.20
22145;DHT22;11238;48.730;11.566;2023-03-14T11:07:30;12.80;99.80
22145;DHT22;11238;48.730;11.566;2023-03-14T11:21:02;12.70;99.90
22145;DHT22;11238;48.730;11.566;2023-03-14T11:29:12;12.70;99.70
22145;DHT22;11238;48.730;11.566;2023-03-14T11:31:41;12.60;99.30
22145;DHT22;11238;48.730;11.566;2023-03-14T11:36:55;12.50;99.50
22145;DHT22;11238;48.730;11.566;2023-03-14T11:39:28;12.60;99.40
22145;DHT22;11238;48.730;11.566;2023-03-14T11:41:58;12.60;98.40
22145;DHT22;11238;48.730;11.566;2023-03-14T11:44:32;12.60;98.90
22145;DHT22;11238;48.730;11.566;2023-03-14T11:47:15;12.50;99.40
22145;DHT22;11238;48.730;11.566;2023-03-14T11:52:34;12.80;98.80
22145;DHT22;11238;48.730;11.566;2023-03-14T11:55:10;12.90;98.20
22145;DHT22;11238;48.730;11.566;2023-03-14T11:57:40;13.00;97.70
22145;DHT22;11238;48.730;11.566;2023-03-14T12:00:25;13.10;97.60
22145;DHT22;11238;48.730;11.566;2023-03-14T12:08:39;13.20;96.80
22145;DHT22;11238;48.730;11.566;2023-03-14T12:13:55;13.20;96.00
22145;DHT22;11238;48.730;11.566;2023-03-14T12:16:36;13.20;95.50
22145;DHT22;11238;48.730;11.566;2023-03-14T12:22:05;13.10;94.60
22145;DHT22;11238;48.730;11.566;2023-03-14T12:24:36;13.00;95.50
22145;DHT22;11238;48.730;11.566;2023-03-14T12:27:05;13.00;96.20
22145;DHT22;11238;48.730;11.566;2023-03-14T12:30:00;12.90;96.60
22145;DHT22;11238;48.730;11.566;2023-03-14T12:32:26;12.80;96.30
22145;DHT22;11238;48.730;11.566;2023-03-14T12:34:53;12.80;97.20
22145;DHT22;11238;48.730;11.566;2023-03-14T12:37:28;12.80;96.20
22145;DHT22;11238;48.730;11.566;2023-03-14T12:40:10;12.80;95.80
22145;DHT22;11238;48.730;11.566;2023-03-14T12:43:04;12.80;96.50
22145;DHT22;11238;48.730;11.566;2023-03-14T12:48:50;12.90;97.20
22145;DHT22;11238;48.730;11.566;2023-03-14T12:51:39;13.00;97.60
22145;DHT22;11238;48.730;11.566;2023-03-14T12:54:27;13.10;98.10
22145;DHT22;11238;48.730;11.566;2023-03-14T12:59:34;13.30;96.50
22145;DHT22;11238;48.730;11.566;2023-03-14T13:02:14;13.30;96.80
22145;DHT22;11238;48.730;11.566;2023-03-14T13:12:34;13.10;95.20
22145;DHT22;11238;48.730;11.566;2023-03-14T13:15:11;13.00;95.90
22145;DHT22;11238;48.730;11.566;2023-03-14T13:17:40;12.90;94.90
22145;DHT22;11238;48.730;11.566;2023-03-14T13:20:24;12.90;95.10
22145;DHT22;11238;48.730;11.566;2023-03-14T13:22:55;12.70;96.00
22145;DHT22;11238;48.730;11.566;2023-03-14T13:25:21;12.60;96.60
22145;DHT22;11238;48.730;11.566;2023-03-14T13:27:51;12.40;97.30
22145;DHT22;11238;48.730;11.566;2023-03-14T13:30:25;12.40;97.00
22145;DHT22;11238;48.730;11.566;2023-03-14T13:32:54;12.40;96.60
22145;DHT22;11238;48.730;11.566;2023-03-14T13:35:24;12.50;97.00
22145;DHT22;11238;48.730;11.566;2023-03-14T13:37:59;12.50;96.80
22145;DHT22;11238;48.730;11.566;2023-03-14T13:40:30;12.50;97.00
22145;DHT22;11238;48.730;11.566;2023-03-14T13:43:02;12.20;98.50
22145;DHT22;11238;48.730;11.566;2023-03-14T13:45:30;11.80;99.90
22145;DHT22;11238;48.730;11.566;2023-03-14T13:47:56;10.70;99.90
22145;DHT22;11238;48.730;11.566;2023-03-14T13:50:22;10.40;99.90
22145;DHT22;11238;48.730;11.566;2023-03-14T13:52:55;10.00;99.90
22145;DHT22;11238;48.730;11.566;2023-03-14T13:55:22;9.90;99.90
22145;DHT22;11238;48.730;11.566;2023-03-14T13:57:50;9.90;99.90
22145;DHT22;11238;48.730;11.566;2023-03-14T14:00:25;10.00;99.90
22145;DHT22;11238;48.730;11.566;2023-03-14T14:02:56;10.00;99.90
22145;DHT22;11238;48.730;11.566;2023-03-14T14:05:45;10.10;99.90
22145;DHT22;11238;48.730;11.566;2023-03-14T14:08:14;10.10;99.90
22145;DHT22;11238;48.730;11.566;2023-03-14T14:10:40;10.20;99.90
22145;DHT22;11238;48.730;11.566;2023-03-14T14:13:08;10.30;99.90
22145;DHT22;11238;48.730;11.566;2023-03-14T14:15:43;10.10;99.90
22145;DHT22;11238;48.730;11.566;2023-03-14T14:18:13;10.00;99.90
22145;DHT22;11238;48.730;11.566;2023-03-14T14:20:45;10.00;99.90
22145;DHT22;11238;48.730;11.566;2023-03-14T14:23:30;9.90;99.90
22145;DHT22;11238;48.730;11.566;2023-03-14T14:25:58;9.80;99.90
22145;DHT22;11238;48.730;11.566;2023-03-14T14:36:43;9.80;99.90
22145;DHT22;11238;48.730;11.566;2023-03-14T14:39:21;9.70;99.90
22145;DHT22;11238;48.730;11.566;2023-03-14T14:41:51;9.60;99.90
22145;DHT22;11238;48.730;11.566;2023-03-14T14:44:22;9.50;99.90
22145;DHT22;11238;48.730;11.566;2023-03-14T14:46:52;9.30;99.90
22145;DHT22;11238;48.730;11.566;2023-03-14T14:49:19;9.20;99.90
22145;DHT22;11238;48.730;11.566;2023-03-14T14:51:50;9.20;99.90
22145;DHT22;11238;48.730;11.566;2023-03-14T14:54:18;9.20;99.90
22145;DHT22;11238;48.730;11.566;2023-03-14T14:57:18;9.10;99.90
22145;DHT22;11238;48.730;11.566;2023-03-14T14:59:44;9.10;99.90
22145;DHT22;11238;48.730;11.566;2023-03-14T15:04:53;9.20;99.90
22145;DHT22;11238;48.730;11.566;2023-03-14T15:07:19;9.20;99.90
22145;DHT22;11238;48.730;11.566;2023-03-14T15:09:45;9.20;99.90
22145;DHT22;11238;48.730;11.566;2023-03-14T15:12:11;9.30;99.90
22145;DHT22;11238;48.730;11.566;2023-03-14T15:14:37;9.40;99.90
22145;DHT22;11238;48.730;11.566;2023-03-14T15:17:03;9.30;99.90
22145;DHT22;11238;48.730;11.566;2023-03-14T15:19:30;9.40;99.90
22145;DHT22;11238;48.730;11.566;2023-03-14T15:21:58;9.40;99.90
22145;DHT22;11238;48.730;11.566;2023-03-14T15:24:24;9.50;99.90
22145;DHT22;11238;48.730;11.566;2023-03-14T15:26:50;9.30;99.90
22145;DHT22;11238;48.730;11.566;2023-03-14T15:29:16;9.10;99.90
22145;DHT22;11238;48.730;11.566;2023-03-14T15:31:43;9.00;99.90
22145;DHT22;11238;48.730;11.566;2023-03-14T15:34:09;9.00;99.90
22145;DHT22;11238;48.730;11.566;2023-03-14T15:36:37;8.90;99.90
22145;DHT22;11238;48.730;11.566;2023-03-14T15:39:05;8.90;99.90
22145;DHT22;11238;48.730;11.566;2023-03-14T15:41:31;8.90;99.90
22145;DHT22;11238;48.730;11.566;2023-03-14T15:43:58;8.90;99.90
22145;DHT22;11238;48.730;11.566;2023-03-14T15:46:24;8.80;99.90
22145;DHT22;11238;48.730;11.566;2023-03-14T15:48:51;8.80;99.90
22145;DHT22;11238;48.730;11.566;2023-03-14T15:51:18;8.90;99.90
22145;DHT22;11238;48.730;11.566;2023-03-14T15:53:44;8.80;99.90
22145;DHT22;11238;48.730;11.566;2023-03-14T15:56:15;8.90;99.90
22145;DHT22;11238;48.730;11.566;2023-03-14T15:59:03;8.80;99.90
22145;DHT22;11238;48.730;11.566;2023-03-14T16:01:29;8.90;99.90
22145;DHT22;11238;48.730;11.566;2023-03-14T16:03:54;8.90;99.90
22145;DHT22;11238;48.730;11.566;2023-03-14T16:06:21;8.90;99.90
22145;DHT22;11238;48.730;11.566;2023-03-14T16:08:47;9.00;99.90
22145;DHT22;11238;48.730;11.566;2023-03-14T16:11:14;9.00;99.90
22145;DHT22;11238;48.730;11.566;2023-03-14T16:13:41;9.00;97.30
22145;DHT22;11238;48.730;11.566;2023-03-14T16:16:07;9.00;94.70
22145;DHT22;11238;48.730;11.566;2023-03-14T16:18:35;8.90;95.80
22145;DHT22;11238;48.730;11.566;2023-03-14T16:21:04;8.80;93.50
22145;DHT22;11238;48.730;11.566;2023-03-14T16:23:34;8.70;91.70
22145;DHT22;11238;48.730;11.566;2023-03-14T16:26:04;8.60;92.00
22145;DHT22;11238;48.730;11.566;2023-03-14T16:28:30;8.50;92.20
22145;DHT22;11238;48.730;11.566;2023-03-14T16:31:01;8.40;92.90
22145;DHT22;11238;48.730;11.566;2023-03-14T16:33:28;8.40;91.10
22145;DHT22;11238;48.730;11.566;2023-03-14T16:35:57;8.30;89.80
22145;DHT22;11238;48.730;11.566;2023-03-14T16:38:23;8.20;89.60
22145;DHT22;11238;48.730;11.566;2023-03-14T16:41:01;8.20;87.30
22145;DHT22;11238;48.730;11.566;2023-03-14T16:43:27;8.00;88.70
22145;DHT22;11238;48.730;11.566;2023-03-14T16:45:53;8.00;89.10
22145;DHT22;11238;48.730;11.566;2023-03-14T16:48:23;7.90;90.70
22145;DHT22;11238;48.730;11.566;2023-03-14T16:50:49;7.90;90.00
22145;DHT22;11238;48.730;11.566;2023-03-14T16:53:16;7.90;88.50
22145;DHT22;11238;48.730;11.566;2023-03-14T16:55:43;7.80;90.10